Nordic Harrier — V7VH2 — position and weather

sailwx.info

Track history (hours):
 
Tides and Currents Weather Stations Pressure Air Temp Water Temp Dewpoint Dewpoint Depression Visibility Wind Speed Wind Dir Waves Ship Positions

Nordic Harrier

Last reported at 2016-May-03 15:13 UTC. Time now 2016-May-04 11:40 UTC.
Position N 01°14' E 103°41'.

Length 274 m; draft 17.4 m.

Type: Ship. MMSI: 538004121.

Date/timePositionNaut miles runAvg speedWind from/ knotsBaromVisibWave heightAir tempDewpointWater temp
2016-May-03 15:13N 01°14' E 103°41'0 0.0
2016-May-03 14:33N 01°14' E 103°41'0 0.0
2016-May-03 13:33N 01°14' E 103°41'1 1.4
2016-May-03 12:33N 01°13' E 103°40'3 2.9
2016-May-03 11:33N 01°10' E 103°41'7 7.4
2016-May-03 10:33N 01°11' E 103°48'1211.5
2016-May-03 09:33N 01°15' E 103°59'6 0.2
2016-May-02 05:21N 01°18' E 104°04'0 0.0
2016-May-01 06:24N 01°18' E 104°04'0 0.0
2016-May-01 05:33N 01°18' E 104°04'  
Track history (hours):
 
Tides and Currents Weather Stations Pressure Air Temp Water Temp Dewpoint Dewpoint Depression Visibility Wind Speed Wind Dir Waves Ship Positions

Nordic Harrier

Last reported at 2016-May-03 15:13 UTC. Time now 2016-May-04 11:40 UTC.
Position N 01°14' E 103°41'.

Length 274 m; draft 17.4 m.

Type: Ship. MMSI: 538004121.

Date/timePositionNaut miles runAvg speedWind from/ knotsBaromVisibWave heightAir tempDewpointWater temp
2016-May-03 15:13N 01°14' E 103°41'0 0.0
2016-May-03 14:33N 01°14' E 103°41'0 0.0
2016-May-03 13:33N 01°14' E 103°41'1 1.4
2016-May-03 12:33N 01°13' E 103°40'3 2.9
2016-May-03 11:33N 01°10' E 103°41'7 7.4
2016-May-03 10:33N 01°11' E 103°48'1211.5
2016-May-03 09:33N 01°15' E 103°59'6 0.2
2016-May-02 05:21N 01°18' E 104°04'0 0.0
2016-May-01 06:24N 01°18' E 104°04'0 0.0
2016-May-01 05:33N 01°18' E 104°04'  

Dump ship's entire track history